Time;durP1;ratioP1;P1;durP2;ratioP2;P2;SDS_P1;SDS_P2;PMS_P1;PMS_P2;Temp;Humidity;BMP_temperature;BMP_pressure;BME280_temperature;BME280_humidity;BME280_pressure;Samples;Min_cycle;Max_cycle;Signal;HPM_P1;HPM_P2
2023/06/09 00:08:57;;;;;;;;;;;;;;;;;;5091742;27;19917;-69
2023/06/09 00:11:23;;;;;;;;;;;;;;;;;;5090995;28;19916;-69
2023/06/09 00:15:27;;;;;;;;;;;;;;;;;;5091341;27;19912;-69
2023/06/09 00:17:53;;;;;;;;;;;;;;;;;;5091034;28;20447;-69
2023/06/09 00:20:20;;;;;;;;;;;;;;;;;;5091341;28;19912;-69
2023/06/09 00:22:48;;;;;;;;;;;;;;;;;;5091565;28;20279;-69
2023/06/09 00:25:15;;;;;;;;;;;;;;;;;;5091012;28;19947;-69
2023/06/09 00:27:41;;;;;;;;;;;;;;;;;;5091209;28;19908;-70
2023/06/09 00:30:09;;;;;;;;;;;;;;;;;;5091148;28;19961;-69
2023/06/09 00:35:09;;;;;;;;;;;;;;;;;;5091526;27;19938;-70
2023/06/09 00:39:08;;;;;;;;;;;;;;;;;;5091570;27;19916;-69
2023/06/09 00:41:34;;;;;;;;;;;;;;;;;;5091475;28;19913;-70
2023/06/09 00:44:00;;;;;;;;;;;;;;;;;;5091643;28;20349;-70
2023/06/09 00:46:26;;;;;;;;;;;;;;;;;;5091189;28;19908;-70
2023/06/09 00:49:43;;;;;;;;;;;;;;;;;;5091728;27;19916;-69
2023/06/09 00:53:42;;;;;;;;;;;;;;;;;;5111407;27;19923;-69
2023/06/09 00:56:08;;;;;;;;;;;;;;;;;;5111693;28;19998;-69
2023/06/09 00:58:34;;;;;;;;;;;;;;;;;;5111880;28;20416;-69
2023/06/09 01:01:00;;;;;;;;;;;;;;;;;;5111556;28;19915;-69
2023/06/09 01:03:26;;;;;;;;;;;;;;;;;;5111595;28;20280;-69
2023/06/09 01:07:50;;;;;;;;;;;;;;;;;;5091343;27;20384;-69
2023/06/09 01:10:24;;;;;;;;;;;;;;;;;;5092121;27;20372;-69
2023/06/09 01:14:25;;;;;;;;;;;;;;;;;;5091132;27;20229;-70
2023/06/09 01:16:54;;;;;;;;;;;;;;;;;;5091623;28;20346;-69
2023/06/09 01:20:57;;;;;;;;;;;;;;;;;;5092232;27;19923;-69
2023/06/09 01:24:17;;;;;;;;;;;;;;;;;;5092263;27;19917;-69
2023/06/09 01:26:42;;;;;;;;;;;;;;;;;;5091401;28;20003;-69
2023/06/09 01:29:08;;;;;;;;;;;;;;;;;;5090846;28;19909;-69
2023/06/09 01:33:44;;;;;;;;;;;;;;;;;;5092160;27;20288;-69
2023/06/09 01:41:07;;;;;;;;;;;;;;;;;;5091617;27;19923;-69
2023/06/09 01:47:15;;;;;;;;;;;;;;;;;;5091671;28;19922;-69
2023/06/09 01:49:41;;;;;;;;;;;;;;;;;;5090915;28;19913;-69
2023/06/09 01:52:19;;;;;;;;;;;;;;;;;;5091951;27;20303;-69
2023/06/09 01:55:23;;;;;;;;;;;;;;;;;;5092004;27;19916;-69
2023/06/09 01:57:49;;;;;;;;;;;;;;;;;;5090986;28;19912;-69
2023/06/09 02:00:15;;;;;;;;;;;;;;;;;;5091321;28;19909;-68
2023/06/09 02:03:27;;;;;;;;;;;;;;;;;;5153091;27;19916;-69
2023/06/09 02:05:53;;;;;;;;;;;;;;;;;;5153031;27;20385;-69
2023/06/09 02:09:32;;;;;;;;;;;;;;;;;;5112205;27;19916;-69
2023/06/09 02:11:59;;;;;;;;;;;;;;;;;;5111357;28;20003;-68
2023/06/09 02:17:00;;;;;;;;;;;;;;;;;;5091841;27;19917;-69
2023/06/09 02:19:26;;;;;;;;;;;;;;;;;;5091256;28;20414;-69
2023/06/09 02:21:52;;;;;;;;;;;;;;;;;;5091363;28;19908;-69
2023/06/09 02:24:18;;;;;;;;;;;;;;;;;;5091611;28;19909;-69
2023/06/09 02:26:44;;;;;;;;;;;;;;;;;;5090801;28;19908;-69
2023/06/09 02:29:10;;;;;;;;;;;;;;;;;;5091216;28;19909;-69
2023/06/09 02:31:36;;;;;;;;;;;;;;;;;;5090729;28;20002;-69
2023/06/09 02:34:02;;;;;;;;;;;;;;;;;;5091075;28;19908;-69
2023/06/09 02:36:29;;;;;;;;;;;;;;;;;;5089775;28;20288;-70
2023/06/09 02:38:55;;;;;;;;;;;;;;;;;;5089312;28;19909;-71
2023/06/09 02:44:14;;;;;;;;;;;;;;;;;;5091686;27;19912;-71
2023/06/09 02:46:40;;;;;;;;;;;;;;;;;;5091037;28;20011;-70
2023/06/09 02:49:32;;;;;;;;;;;;;;;;;;5091814;27;19917;-69
2023/06/09 02:51:59;;;;;;;;;;;;;;;;;;5091644;28;20007;-69
2023/06/09 02:54:24;;;;;;;;;;;;;;;;;;5090998;28;20447;-69
2023/06/09 02:56:52;;;;;;;;;;;;;;;;;;5091665;28;19944;-70
2023/06/09 03:00:14;;;;;;;;;;;;;;;;;;5071029;28;20402;-71
2023/06/09 03:04:17;;;;;;;;;;;;;;;;;;5092044;27;19916;-70
2023/06/09 03:06:43;;;;;;;;;;;;;;;;;;5091031;28;20427;-70
2023/06/09 03:15:40;;;;;;;;;;;;;;;;;;5132020;27;19916;-70
2023/06/09 03:18:07;;;;;;;;;;;;;;;;;;5132333;27;19911;-71
2023/06/09 03:20:36;;;;;;;;;;;;;;;;;;5132269;27;19939;-71
2023/06/09 03:23:02;;;;;;;;;;;;;;;;;;5131773;27;19908;-71
2023/06/09 03:25:31;;;;;;;;;;;;;;;;;;5132316;27;19908;-70
2023/06/09 03:27:56;;;;;;;;;;;;;;;;;;5132232;27;20378;-70
2023/06/09 03:32:56;;;;;;;;;;;;;;;;;;5091591;27;19916;-69
2023/06/09 03:35:22;;;;;;;;;;;;;;;;;;5090973;28;20011;-69
2023/06/09 03:39:42;;;;;;;;;;;;;;;;;;5092223;27;19917;-69
2023/06/09 03:42:08;;;;;;;;;;;;;;;;;;5090941;28;20011;-70
2023/06/09 03:44:34;;;;;;;;;;;;;;;;;;5091312;28;19909;-70
2023/06/09 03:50:27;;;;;;;;;;;;;;;;;;5091176;27;20406;-69
2023/06/09 03:53:29;;;;;;;;;;;;;;;;;;5091689;27;19916;-69
2023/06/09 03:55:55;;;;;;;;;;;;;;;;;;5091229;28;19920;-69
2023/06/09 04:01:50;;;;;;;;;;;;;;;;;;5091408;27;19923;-69
2023/06/09 04:05:04;;;;;;;;;;;;;;;;;;5091044;27;19916;-69
2023/06/09 04:07:30;;;;;;;;;;;;;;;;;;5091626;28;20313;-69
2023/06/09 04:09:56;;;;;;;;;;;;;;;;;;5091190;28;19951;-69
2023/06/09 04:12:58;;;;;;;;;;;;;;;;;;5092170;27;19916;-68
2023/06/09 04:15:24;;;;;;;;;;;;;;;;;;5091348;28;19999;-69
2023/06/09 04:17:50;;;;;;;;;;;;;;;;;;5090906;28;19915;-69
2023/06/09 04:20:21;;;;;;;;;;;;;;;;;;5091399;28;19908;-69
2023/06/09 04:22:56;;;;;;;;;;;;;;;;;;5112313;27;19922;-69
2023/06/09 04:29:57;;;;;;;;;;;;;;;;;;5091494;27;19916;-69
2023/06/09 04:32:23;;;;;;;;;;;;;;;;;;5089669;28;20456;-69
2023/06/09 04:34:49;;;;;;;;;;;;;;;;;;5091429;28;19995;-69
2023/06/09 04:37:29;;;;;;;;;;;;;;;;;;5091962;27;19923;-69
2023/06/09 04:39:55;;;;;;;;;;;;;;;;;;5090945;28;19916;-69
2023/06/09 04:44:05;;;;;;;;;;;;;;;;;;5092193;27;19923;-69
2023/06/09 04:46:37;;;;;;;;;;;;;;;;;;5091027;28;20280;-69
2023/06/09 04:49:08;;;;;;;;;;;;;;;;;;5091609;28;19915;-69
2023/06/09 04:54:36;;;;;;;;;;;;;;;;;;5092176;27;19935;-69
2023/06/09 04:57:03;;;;;;;;;;;;;;;;;;5091398;28;19938;-69
2023/06/09 05:00:15;;;;;;;;;;;;;;;;;;5111468;27;19916;-68
2023/06/09 05:02:42;;;;;;;;;;;;;;;;;;5110952;28;19912;-69
2023/06/09 05:05:44;;;;;;;;;;;;;;;;;;5171365;27;19919;-68
2023/06/09 05:12:21;;;;;;;;;;;;;;;;;;5152927;27;20294;-68
2023/06/09 05:14:47;;;;;;;;;;;;;;;;;;5136091;27;19912;-65
2023/06/09 05:17:13;;;;;;;;;;;;;;;;;;5139716;27;19979;-64
2023/06/09 05:19:39;;;;;;;;;;;;;;;;;;5148413;27;19911;-65
2023/06/09 05:24:24;;;;;;;;;;;;;;;;;;4990750;27;4245194;-66
2023/06/09 05:26:50;;;;;;;;;;;;;;;;;;5131356;27;19912;-65
2023/06/09 05:29:16;;;;;;;;;;;;;;;;;;5117963;28;19994;-66
2023/06/09 05:31:42;;;;;;;;;;;;;;;;;;5116114;27;20417;-66
2023/06/09 05:34:08;;;;;;;;;;;;;;;;;;5118441;27;20359;-66
2023/06/09 05:36:36;;;;;;;;;;;;;;;;;;5124148;28;20470;-66
2023/06/09 05:39:02;;;;;;;;;;;;;;;;;;5114349;28;19908;-66
2023/06/09 05:41:28;;;;;;;;;;;;;;;;;;5106675;28;19912;-66
2023/06/09 05:43:57;;;;;;;;;;;;;;;;;;5126278;28;19987;-66
2023/06/09 05:50:00;;;;;;;;;;;;;;;;;;5110288;27;20395;-65
2023/06/09 05:52:41;;;;;;;;;;;;;;;;;;5087732;27;19912;-65
2023/06/09 05:55:07;;;;;;;;;;;;;;;;;;5087237;28;19919;-66
2023/06/09 05:57:33;;;;;;;;;;;;;;;;;;5086505;28;19912;-65
2023/06/09 06:04:25;;;;;;;;;;;;;;;;;;5069860;28;19924;-65
2023/06/09 06:06:51;;;;;;;;;;;;;;;;;;5068131;28;19912;-65
2023/06/09 06:10:32;;;;;;;;;;;;;;;;;;5087959;28;20372;-66
2023/06/09 06:13:01;;;;;;;;;;;;;;;;;;5088510;28;19981;-66
2023/06/09 06:15:27;;;;;;;;;;;;;;;;;;5088059;28;19912;-66
2023/06/09 06:18:20;;;;;;;;;;;;;;;;;;5105928;27;19934;-68
2023/06/09 06:21:35;;;;;;;;;;;;;;;;;;5083756;27;20385;-65
2023/06/09 06:26:28;;;;;;;;;;;;;;;;;;5049263;28;19931;-67
2023/06/09 06:31:02;;;;;;;;;;;;;;;;;;5086627;27;20376;-64
2023/06/09 06:34:57;;;;;;;;;;;;;;;;;;5126395;27;20310;-64
2023/06/09 06:37:23;;;;;;;;;;;;;;;;;;5119953;28;20002;-64
2023/06/09 06:39:49;;;;;;;;;;;;;;;;;;5119097;28;19911;-65
2023/06/09 06:42:56;;;;;;;;;;;;;;;;;;5109024;27;19920;-64
2023/06/09 06:45:22;;;;;;;;;;;;;;;;;;5104053;28;19913;-65
2023/06/09 06:51:47;;;;;;;;;;;;;;;;;;5089519;27;19927;-64
2023/06/09 06:54:13;;;;;;;;;;;;;;;;;;5090189;28;20276;-65
2023/06/09 06:56:39;;;;;;;;;;;;;;;;;;5089612;28;19916;-65
2023/06/09 06:59:05;;;;;;;;;;;;;;;;;;5085880;28;19947;-65
2023/06/09 07:02:56;;;;;;;;;;;;;;;;;;5124854;27;19926;-64
2023/06/09 07:05:22;;;;;;;;;;;;;;;;;;5104034;28;19957;-64
2023/06/09 07:10:01;;;;;;;;;;;;;;;;;;5089823;27;19916;-65
2023/06/09 07:12:27;;;;;;;;;;;;;;;;;;5090527;28;19912;-64
2023/06/09 07:15:48;;;;;;;;;;;;;;;;;;5149898;27;19922;-64
2023/06/09 07:19:27;;;;;;;;;;;;;;;;;;5148748;27;19918;-64
2023/06/09 07:23:45;;;;;;;;;;;;;;;;;;5084395;28;19927;-66
2023/06/09 07:26:10;;;;;;;;;;;;;;;;;;5078689;28;19913;-66
2023/06/09 07:28:36;;;;;;;;;;;;;;;;;;5066445;28;19955;-65
2023/06/09 07:31:02;;;;;;;;;;;;;;;;;;5067224;28;19935;-65
2023/06/09 07:36:10;;;;;;;;;;;;;;;;;;5133723;27;19926;-64
2023/06/09 07:38:37;;;;;;;;;;;;;;;;;;5114640;28;19912;-64
2023/06/09 07:42:11;;;;;;;;;;;;;;;;;;5086014;27;19926;-64
2023/06/09 07:45:37;;;;;;;;;;;;;;;;;;5086887;27;19916;-65
2023/06/09 07:48:03;;;;;;;;;;;;;;;;;;5084896;28;19971;-63
2023/06/09 07:54:11;;;;;;;;;;;;;;;;;;5149692;27;19911;-64
2023/06/09 07:56:37;;;;;;;;;;;;;;;;;;5144029;27;19955;-64
2023/06/09 07:59:03;;;;;;;;;;;;;;;;;;5108310;28;19912;-65
2023/06/09 08:02:17;;;;;;;;;;;;;;;;;;5086135;27;19920;-64
2023/06/09 08:05:22;;;;;;;;;;;;;;;;;;5085582;27;19916;-64
2023/06/09 08:11:02;;;;;;;;;;;;;;;;;;5110318;27;19920;-64
2023/06/09 08:15:52;;;;;;;;;;;;;;;;;;5150275;27;19919;-63
2023/06/09 08:18:18;;;;;;;;;;;;;;;;;;5150218;27;20379;-64
2023/06/09 08:20:44;;;;;;;;;;;;;;;;;;5145744;27;20014;-64
2023/06/09 08:23:10;;;;;;;;;;;;;;;;;;5127259;27;20379;-65
2023/06/09 08:26:49;;;;;;;;;;;;;;;;;;5111413;27;19924;-67
2023/06/09 08:29:16;;;;;;;;;;;;;;;;;;5110360;28;20444;-69
2023/06/09 08:31:42;;;;;;;;;;;;;;;;;;5109562;28;19918;-66
2023/06/09 08:34:08;;;;;;;;;;;;;;;;;;5106413;28;20439;-66
2023/06/09 08:37:42;;;;;;;;;;;;;;;;;;5088708;27;19927;-64
2023/06/09 08:42:34;;;;;;;;;;;;;;;;;;5102333;27;19916;-65
2023/06/09 08:45:04;;;;;;;;;;;;;;;;;;5084085;28;19954;-66
2023/06/09 08:47:32;;;;;;;;;;;;;;;;;;5075892;28;20380;-65
2023/06/09 08:49:59;;;;;;;;;;;;;;;;;;5083519;28;19931;-65
2023/06/09 08:52:25;;;;;;;;;;;;;;;;;;5084553;28;19927;-66
2023/06/09 08:54:52;;;;;;;;;;;;;;;;;;5077590;28;19912;-67
2023/06/09 08:57:19;;;;;;;;;;;;;;;;;;5075335;28;19908;-67
2023/06/09 08:59:45;;;;;;;;;;;;;;;;;;5067464;28;19944;-64
2023/06/09 09:04:02;;;;;;;;;;;;;;;;;;5141717;27;19920;-65
2023/06/09 09:06:28;;;;;;;;;;;;;;;;;;5148982;27;19932;-65
2023/06/09 09:08:54;;;;;;;;;;;;;;;;;;5131082;27;19916;-65
2023/06/09 09:11:21;;;;;;;;;;;;;;;;;;5125253;27;19911;-67
2023/06/09 09:13:46;;;;;;;;;;;;;;;;;;5112381;28;20294;-67
2023/06/09 09:16:16;;;;;;;;;;;;;;;;;;5118189;27;19915;-66
2023/06/09 09:18:42;;;;;;;;;;;;;;;;;;5104250;28;19970;-67
2023/06/09 09:21:08;;;;;;;;;;;;;;;;;;5120261;28;19914;-67
2023/06/09 09:23:34;;;;;;;;;;;;;;;;;;5105534;28;19920;-66
2023/06/09 09:26:00;;;;;;;;;;;;;;;;;;5128877;27;19911;-67
2023/06/09 09:28:26;;;;;;;;;;;;;;;;;;5117079;27;19962;-68
2023/06/09 09:30:54;;;;;;;;;;;;;;;;;;5113583;27;20533;-67
2023/06/09 09:33:23;;;;;;;;;;;;;;;;;;5129677;27;19927;-68
2023/06/09 09:35:49;;;;;;;;;;;;;;;;;;5124404;27;19912;-67
2023/06/09 09:43:58;;;;;;;;;;;;;;;;;;5145040;27;20506;-66
2023/06/09 09:46:25;;;;;;;;;;;;;;;;;;5129478;27;19916;-65
2023/06/09 09:48:50;;;;;;;;;;;;;;;;;;5134989;27;19908;-66
2023/06/09 09:51:17;;;;;;;;;;;;;;;;;;5126354;28;19912;-66
2023/06/09 09:53:42;;;;;;;;;;;;;;;;;;5125804;27;20441;-65
2023/06/09 09:56:08;;;;;;;;;;;;;;;;;;5121451;27;19912;-67
2023/06/09 09:58:34;;;;;;;;;;;;;;;;;;5132604;27;19919;-66
2023/06/09 10:01:00;;;;;;;;;;;;;;;;;;5111019;27;19912;-69
2023/06/09 10:03:27;;;;;;;;;;;;;;;;;;5137684;27;20368;-68
2023/06/09 10:05:55;;;;;;;;;;;;;;;;;;5127495;27;20015;-68
2023/06/09 10:08:26;;;;;;;;;;;;;;;;;;5135784;27;20443;-66
2023/06/09 10:10:52;;;;;;;;;;;;;;;;;;5108733;28;19908;-65
2023/06/09 10:13:18;;;;;;;;;;;;;;;;;;5128996;28;19995;-63
2023/06/09 10:15:44;;;;;;;;;;;;;;;;;;5129138;28;20379;-64
2023/06/09 10:18:10;;;;;;;;;;;;;;;;;;5132335;27;19915;-64
2023/06/09 10:20:36;;;;;;;;;;;;;;;;;;5128801;28;19952;-64
2023/06/09 10:23:02;;;;;;;;;;;;;;;;;;5133058;27;19923;-64
2023/06/09 10:25:28;;;;;;;;;;;;;;;;;;5136299;27;20011;-64
2023/06/09 10:27:55;;;;;;;;;;;;;;;;;;5136179;27;20009;-65
2023/06/09 10:30:21;;;;;;;;;;;;;;;;;;5123325;27;19915;-64
2023/06/09 10:32:47;;;;;;;;;;;;;;;;;;5129509;28;19908;-65
2023/06/09 10:35:13;;;;;;;;;;;;;;;;;;5128530;28;19915;-65
2023/06/09 10:37:41;;;;;;;;;;;;;;;;;;5131598;27;19924;-70
2023/06/09 10:40:10;;;;;;;;;;;;;;;;;;5137377;27;20367;-69
2023/06/09 10:42:36;;;;;;;;;;;;;;;;;;5123882;27;20393;-65
2023/06/09 10:45:03;;;;;;;;;;;;;;;;;;5138670;27;19916;-65
2023/06/09 10:47:28;;;;;;;;;;;;;;;;;;5136471;27;19911;-67
2023/06/09 10:49:55;;;;;;;;;;;;;;;;;;5130256;27;19912;-66
2023/06/09 10:52:21;;;;;;;;;;;;;;;;;;5128734;27;20430;-64
2023/06/09 10:54:47;;;;;;;;;;;;;;;;;;5117427;28;19965;-65
2023/06/09 10:57:13;;;;;;;;;;;;;;;;;;5113191;28;19930;-65
2023/06/09 10:59:39;;;;;;;;;;;;;;;;;;5113614;27;19919;-68
2023/06/09 11:02:05;;;;;;;;;;;;;;;;;;5129864;27;20413;-67
2023/06/09 11:04:31;;;;;;;;;;;;;;;;;;5124896;27;19915;-68
2023/06/09 11:06:57;;;;;;;;;;;;;;;;;;5114946;28;19916;-66
2023/06/09 11:09:25;;;;;;;;;;;;;;;;;;5127019;27;19915;-65
2023/06/09 11:11:51;;;;;;;;;;;;;;;;;;5136057;27;19912;-66
2023/06/09 11:14:17;;;;;;;;;;;;;;;;;;5136153;27;19915;-66
2023/06/09 11:16:42;;;;;;;;;;;;;;;;;;5136519;27;19912;-68
2023/06/09 11:19:08;;;;;;;;;;;;;;;;;;5123156;27;19919;-67
2023/06/09 11:21:34;;;;;;;;;;;;;;;;;;5107743;27;19969;-66
2023/06/09 11:24:00;;;;;;;;;;;;;;;;;;5119956;27;20333;-67
2023/06/09 11:26:26;;;;;;;;;;;;;;;;;;5094691;28;19912;-66
2023/06/09 11:28:52;;;;;;;;;;;;;;;;;;5115323;28;19930;-66
2023/06/09 11:31:18;;;;;;;;;;;;;;;;;;5115638;27;19911;-66
2023/06/09 11:33:45;;;;;;;;;;;;;;;;;;5117435;27;20329;-66
2023/06/09 11:36:12;;;;;;;;;;;;;;;;;;5099382;28;19915;-66
2023/06/09 11:38:38;;;;;;;;;;;;;;;;;;5115087;28;19935;-66
2023/06/09 11:41:04;;;;;;;;;;;;;;;;;;5113150;28;19962;-66
2023/06/09 11:43:30;;;;;;;;;;;;;;;;;;5095185;28;19920;-67
2023/06/09 11:45:56;;;;;;;;;;;;;;;;;;5098026;28;19919;-66
2023/06/09 11:48:22;;;;;;;;;;;;;;;;;;5104823;28;19916;-66
2023/06/09 11:50:48;;;;;;;;;;;;;;;;;;5098208;28;20011;-66
2023/06/09 11:53:13;;;;;;;;;;;;;;;;;;5106083;28;19918;-67
2023/06/09 11:55:39;;;;;;;;;;;;;;;;;;5110550;28;19912;-67
2023/06/09 11:58:08;;;;;;;;;;;;;;;;;;5114512;28;19944;-66
2023/06/09 12:00:34;;;;;;;;;;;;;;;;;;5091415;28;19912;-64
2023/06/09 12:03:01;;;;;;;;;;;;;;;;;;5093594;28;19916;-66
2023/06/09 12:05:27;;;;;;;;;;;;;;;;;;5091535;28;20328;-65
2023/06/09 12:07:53;;;;;;;;;;;;;;;;;;5076226;28;19987;-65
2023/06/09 12:10:20;;;;;;;;;;;;;;;;;;5094345;28;19908;-66
2023/06/09 12:12:46;;;;;;;;;;;;;;;;;;5093757;28;20408;-68
2023/06/09 12:15:12;;;;;;;;;;;;;;;;;;5106463;28;19993;-67
2023/06/09 12:17:38;;;;;;;;;;;;;;;;;;5109535;28;19911;-66
2023/06/09 12:20:05;;;;;;;;;;;;;;;;;;5095325;28;19923;-66
2023/06/09 12:22:31;;;;;;;;;;;;;;;;;;5093948;28;19924;-67
2023/06/09 12:24:57;;;;;;;;;;;;;;;;;;5094972;28;19961;-67
2023/06/09 12:27:23;;;;;;;;;;;;;;;;;;5093887;28;19908;-66
2023/06/09 12:29:49;;;;;;;;;;;;;;;;;;5099101;28;20014;-67
2023/06/09 12:32:15;;;;;;;;;;;;;;;;;;5096355;28;19990;-67
2023/06/09 12:34:41;;;;;;;;;;;;;;;;;;5099158;28;19954;-66
2023/06/09 12:37:07;;;;;;;;;;;;;;;;;;5105243;28;19909;-66
2023/06/09 12:39:33;;;;;;;;;;;;;;;;;;5076282;28;19952;-66
2023/06/09 12:41:59;;;;;;;;;;;;;;;;;;5098078;28;20022;-66
2023/06/09 12:44:25;;;;;;;;;;;;;;;;;;5127680;27;20013;-66
2023/06/09 12:46:55;;;;;;;;;;;;;;;;;;5119662;27;19955;-66
2023/06/09 12:49:21;;;;;;;;;;;;;;;;;;5114442;28;20369;-67
2023/06/09 12:51:47;;;;;;;;;;;;;;;;;;5123590;27;19918;-67
2023/06/09 12:54:13;;;;;;;;;;;;;;;;;;5134688;27;19908;-67
2023/06/09 12:56:39;;;;;;;;;;;;;;;;;;5115764;27;19999;-67
2023/06/09 12:59:06;;;;;;;;;;;;;;;;;;5114300;28;19911;-67
2023/06/09 13:01:32;;;;;;;;;;;;;;;;;;5114759;27;19911;-67
2023/06/09 13:03:58;;;;;;;;;;;;;;;;;;5102853;27;19919;-69
2023/06/09 13:06:24;;;;;;;;;;;;;;;;;;5134902;27;20278;-69
2023/06/09 13:08:50;;;;;;;;;;;;;;;;;;5135390;27;20326;-69
2023/06/09 13:11:16;;;;;;;;;;;;;;;;;;5135281;27;19908;-69
2023/06/09 13:13:42;;;;;;;;;;;;;;;;;;5134720;27;19917;-70
2023/06/09 13:16:08;;;;;;;;;;;;;;;;;;5135060;27;19907;-70
2023/06/09 13:18:34;;;;;;;;;;;;;;;;;;5134718;27;19908;-71
2023/06/09 13:21:00;;;;;;;;;;;;;;;;;;5135166;27;19914;-70
2023/06/09 13:23:26;;;;;;;;;;;;;;;;;;5134933;27;20002;-71
2023/06/09 13:25:52;;;;;;;;;;;;;;;;;;5134585;27;19912;-71
2023/06/09 13:28:18;;;;;;;;;;;;;;;;;;5134951;27;19976;-70
2023/06/09 13:30:44;;;;;;;;;;;;;;;;;;5134959;27;19993;-71
2023/06/09 13:33:10;;;;;;;;;;;;;;;;;;5134521;27;19960;-71
2023/06/09 13:35:36;;;;;;;;;;;;;;;;;;5134927;27;20386;-70
2023/06/09 13:38:03;;;;;;;;;;;;;;;;;;5134941;27;19912;-71
2023/06/09 13:40:29;;;;;;;;;;;;;;;;;;5134360;28;19991;-70
2023/06/09 13:42:55;;;;;;;;;;;;;;;;;;5134592;28;19926;-71
2023/06/09 13:45:21;;;;;;;;;;;;;;;;;;5134767;28;19908;-70
2023/06/09 13:47:47;;;;;;;;;;;;;;;;;;5116021;28;19907;-69
2023/06/09 13:50:13;;;;;;;;;;;;;;;;;;5134873;28;20314;-70
2023/06/09 13:52:40;;;;;;;;;;;;;;;;;;5134679;28;20359;-70
2023/06/09 13:55:06;;;;;;;;;;;;;;;;;;5134326;28;19914;-70
2023/06/09 13:57:32;;;;;;;;;;;;;;;;;;5134913;28;19998;-70
2023/06/09 13:59:58;;;;;;;;;;;;;;;;;;5134641;28;19913;-70
2023/06/09 14:02:24;;;;;;;;;;;;;;;;;;5134267;28;19916;-70
2023/06/09 14:04:50;;;;;;;;;;;;;;;;;;5116233;28;19907;-70
2023/06/09 14:07:16;;;;;;;;;;;;;;;;;;5134633;28;20270;-71
2023/06/09 14:09:43;;;;;;;;;;;;;;;;;;5134408;28;19998;-71
2023/06/09 14:12:09;;;;;;;;;;;;;;;;;;5134568;28;19914;-70
2023/06/09 14:14:35;;;;;;;;;;;;;;;;;;5134550;28;19908;-71
2023/06/09 14:17:01;;;;;;;;;;;;;;;;;;5134312;28;19943;-70
2023/06/09 14:19:27;;;;;;;;;;;;;;;;;;5134827;28;19968;-70
2023/06/09 14:21:53;;;;;;;;;;;;;;;;;;5134156;28;19911;-70
2023/06/09 14:24:19;;;;;;;;;;;;;;;;;;5134429;28;19911;-71
2023/06/09 14:26:45;;;;;;;;;;;;;;;;;;5134653;28;19908;-71
2023/06/09 14:29:11;;;;;;;;;;;;;;;;;;5135501;27;19979;-71
2023/06/09 14:31:37;;;;;;;;;;;;;;;;;;5138297;27;19907;-71
2023/06/09 14:34:03;;;;;;;;;;;;;;;;;;5138220;27;20290;-71
2023/06/09 14:36:29;;;;;;;;;;;;;;;;;;5119357;27;20342;-71
2023/06/09 14:38:55;;;;;;;;;;;;;;;;;;5138128;27;20240;-70
2023/06/09 14:41:21;;;;;;;;;;;;;;;;;;5119719;27;19911;-71
2023/06/09 14:43:47;;;;;;;;;;;;;;;;;;5137314;27;20380;-71
2023/06/09 14:46:13;;;;;;;;;;;;;;;;;;5138073;27;19907;-71
2023/06/09 14:48:39;;;;;;;;;;;;;;;;;;5137931;27;19912;-71
2023/06/09 14:51:05;;;;;;;;;;;;;;;;;;5119156;27;20006;-71
2023/06/09 14:53:31;;;;;;;;;;;;;;;;;;5137935;27;19914;-70
2023/06/09 14:55:57;;;;;;;;;;;;;;;;;;5138372;27;19937;-70
2023/06/09 14:58:23;;;;;;;;;;;;;;;;;;5137442;27;19914;-70
2023/06/09 15:00:49;;;;;;;;;;;;;;;;;;5137754;27;20018;-70
2023/06/09 15:03:17;;;;;;;;;;;;;;;;;;5137926;27;19915;-70
2023/06/09 15:05:43;;;;;;;;;;;;;;;;;;5137388;27;20409;-71
2023/06/09 15:08:09;;;;;;;;;;;;;;;;;;5137739;27;19907;-71
2023/06/09 15:10:35;;;;;;;;;;;;;;;;;;5137727;27;19908;-71
2023/06/09 15:13:01;;;;;;;;;;;;;;;;;;5137145;27;20069;-71
2023/06/09 15:15:27;;;;;;;;;;;;;;;;;;5137528;27;19937;-70
2023/06/09 15:17:53;;;;;;;;;;;;;;;;;;5137633;27;20319;-70
2023/06/09 15:20:21;;;;;;;;;;;;;;;;;;5137275;27;20418;-71
2023/06/09 15:22:47;;;;;;;;;;;;;;;;;;5118833;27;20271;-70
2023/06/09 15:25:13;;;;;;;;;;;;;;;;;;5137124;27;19908;-70
2023/06/09 15:27:39;;;;;;;;;;;;;;;;;;5137253;27;20359;-71
2023/06/09 15:30:05;;;;;;;;;;;;;;;;;;5137180;27;20049;-70
2023/06/09 15:32:31;;;;;;;;;;;;;;;;;;5136767;27;20382;-70
2023/06/09 15:34:57;;;;;;;;;;;;;;;;;;5137059;27;19914;-70
2023/06/09 15:37:23;;;;;;;;;;;;;;;;;;5118557;27;19943;-70
2023/06/09 15:39:49;;;;;;;;;;;;;;;;;;5136450;27;19911;-70
2023/06/09 15:42:15;;;;;;;;;;;;;;;;;;5118211;27;19988;-69
2023/06/09 15:44:41;;;;;;;;;;;;;;;;;;5136926;27;20355;-70
2023/06/09 15:47:07;;;;;;;;;;;;;;;;;;5136517;27;20351;-69
2023/06/09 15:49:33;;;;;;;;;;;;;;;;;;5118390;27;20286;-70
2023/06/09 15:51:59;;;;;;;;;;;;;;;;;;5118262;27;19958;-69
2023/06/09 15:54:25;;;;;;;;;;;;;;;;;;5118171;27;20244;-69
2023/06/09 15:56:51;;;;;;;;;;;;;;;;;;5118331;27;19928;-69
2023/06/09 15:59:18;;;;;;;;;;;;;;;;;;5136698;27;20376;-69
2023/06/09 16:01:44;;;;;;;;;;;;;;;;;;5136225;27;20278;-69
2023/06/09 16:04:10;;;;;;;;;;;;;;;;;;5136684;27;19912;-69
2023/06/09 16:06:36;;;;;;;;;;;;;;;;;;5136584;27;20386;-69
2023/06/09 16:09:02;;;;;;;;;;;;;;;;;;5136001;27;20003;-70
2023/06/09 16:11:28;;;;;;;;;;;;;;;;;;5136891;27;19908;-70
2023/06/09 16:13:54;;;;;;;;;;;;;;;;;;5136589;27;19914;-70
2023/06/09 16:16:20;;;;;;;;;;;;;;;;;;5135796;27;19986;-70
2023/06/09 16:18:46;;;;;;;;;;;;;;;;;;5136069;27;19931;-71
2023/06/09 16:21:12;;;;;;;;;;;;;;;;;;5136089;27;19918;-69
2023/06/09 16:23:38;;;;;;;;;;;;;;;;;;5135661;27;19915;-71
2023/06/09 16:26:04;;;;;;;;;;;;;;;;;;5135939;27;19986;-69
2023/06/09 16:28:30;;;;;;;;;;;;;;;;;;5135737;27;19908;-69
2023/06/09 16:30:56;;;;;;;;;;;;;;;;;;5135899;27;20270;-69
2023/06/09 16:33:22;;;;;;;;;;;;;;;;;;5135821;27;19966;-70
2023/06/09 16:35:48;;;;;;;;;;;;;;;;;;5135610;27;20362;-70
2023/06/09 16:38:14;;;;;;;;;;;;;;;;;;5135831;27;19914;-70
2023/06/09 16:40:40;;;;;;;;;;;;;;;;;;5135809;27;19973;-70
2023/06/09 16:43:06;;;;;;;;;;;;;;;;;;5135027;27;19951;-70
2023/06/09 16:45:32;;;;;;;;;;;;;;;;;;5135629;27;19911;-70
2023/06/09 16:47:58;;;;;;;;;;;;;;;;;;5135586;27;19950;-69
2023/06/09 16:50:24;;;;;;;;;;;;;;;;;;5135112;27;19990;-71
2023/06/09 16:52:50;;;;;;;;;;;;;;;;;;5134983;27;19908;-70
2023/06/09 16:55:16;;;;;;;;;;;;;;;;;;5135449;27;19914;-69
2023/06/09 16:57:42;;;;;;;;;;;;;;;;;;5116701;27;19907;-71
2023/06/09 17:00:08;;;;;;;;;;;;;;;;;;5135320;27;19907;-69
2023/06/09 17:02:34;;;;;;;;;;;;;;;;;;5135244;27;20002;-69
2023/06/09 17:05:00;;;;;;;;;;;;;;;;;;5134981;27;20327;-72
2023/06/09 17:07:31;;;;;;;;;;;;;;;;;;5135288;27;20278;-70
2023/06/09 17:09:57;;;;;;;;;;;;;;;;;;5135467;27;19907;-69
2023/06/09 17:12:23;;;;;;;;;;;;;;;;;;5134884;27;19907;-70
2023/06/09 17:14:48;;;;;;;;;;;;;;;;;;5135185;27;19915;-70
2023/06/09 17:17:14;;;;;;;;;;;;;;;;;;5135106;27;20002;-70
2023/06/09 17:19:42;;;;;;;;;;;;;;;;;;5134736;27;19911;-71
2023/06/09 17:22:07;;;;;;;;;;;;;;;;;;5134942;27;19915;-71
2023/06/09 17:24:33;;;;;;;;;;;;;;;;;;5135011;27;20014;-70
2023/06/09 17:26:59;;;;;;;;;;;;;;;;;;5116219;27;19907;-71
2023/06/09 17:29:25;;;;;;;;;;;;;;;;;;5134911;27;19959;-71
2023/06/09 17:31:53;;;;;;;;;;;;;;;;;;5134596;27;20002;-70
2023/06/09 17:34:19;;;;;;;;;;;;;;;;;;5135133;27;20274;-70
2023/06/09 17:36:45;;;;;;;;;;;;;;;;;;5134885;27;19908;-70
2023/06/09 17:39:11;;;;;;;;;;;;;;;;;;5134363;27;19946;-72
2023/06/09 17:41:37;;;;;;;;;;;;;;;;;;5134647;27;19908;-69
2023/06/09 17:44:03;;;;;;;;;;;;;;;;;;5134718;28;19915;-71
2023/06/09 17:46:29;;;;;;;;;;;;;;;;;;5134454;28;20355;-72
2023/06/09 17:48:55;;;;;;;;;;;;;;;;;;5116044;28;19913;-71
2023/06/09 17:51:20;;;;;;;;;;;;;;;;;;5116237;28;20291;-71
2023/06/09 17:53:47;;;;;;;;;;;;;;;;;;5133928;28;19994;-69
2023/06/09 17:56:13;;;;;;;;;;;;;;;;;;5134653;28;19914;-70
2023/06/09 17:58:39;;;;;;;;;;;;;;;;;;5116053;28;20009;-70
2023/06/09 18:01:05;;;;;;;;;;;;;;;;;;5115774;28;19907;-70
2023/06/09 18:03:31;;;;;;;;;;;;;;;;;;5134865;27;19938;-69
2023/06/09 18:05:57;;;;;;;;;;;;;;;;;;5138700;27;19907;-70
2023/06/09 18:08:23;;;;;;;;;;;;;;;;;;5138267;27;19953;-70
2023/06/09 18:10:49;;;;;;;;;;;;;;;;;;5138579;27;19908;-70
2023/06/09 18:13:16;;;;;;;;;;;;;;;;;;5138574;27;19907;-71
2023/06/09 18:15:42;;;;;;;;;;;;;;;;;;5138076;27;19980;-70
2023/06/09 18:18:08;;;;;;;;;;;;;;;;;;5138466;27;20409;-69
2023/06/09 18:20:34;;;;;;;;;;;;;;;;;;5138424;27;20367;-70
2023/06/09 18:23:00;;;;;;;;;;;;;;;;;;5137943;27;19915;-70
2023/06/09 18:25:40;;;;;;;;;;;;;;;;;;5091484;27;19916;-70
2023/06/09 18:28:06;;;;;;;;;;;;;;;;;;5090950;28;20010;-70
2023/06/09 18:30:32;;;;;;;;;;;;;;;;;;5091363;28;19977;-71
2023/06/09 18:32:58;;;;;;;;;;;;;;;;;;5091583;28;19909;-69
2023/06/09 18:35:25;;;;;;;;;;;;;;;;;;5090802;28;19908;-69
2023/06/09 18:37:51;;;;;;;;;;;;;;;;;;5091362;28;19909;-69
2023/06/09 18:45:11;;;;;;;;;;;;;;;;;;5111679;27;19912;-72
2023/06/09 18:49:35;;;;;;;;;;;;;;;;;;5091313;27;19917;-70
2023/06/09 18:53:47;;;;;;;;;;;;;;;;;;5091397;27;19917;-70
2023/06/09 18:56:13;;;;;;;;;;;;;;;;;;5091038;28;19999;-70
2023/06/09 18:58:39;;;;;;;;;;;;;;;;;;5091555;28;20257;-70
2023/06/09 19:01:46;;;;;;;;;;;;;;;;;;5091536;28;19917;-72
2023/06/09 19:09:42;;;;;;;;;;;;;;;;;;5091534;28;19926;-70
2023/06/09 19:18:24;;;;;;;;;;;;;;;;;;5091434;27;19919;-71